createdAt,value
2018-04-23T00:05:36.514Z,69.30
2018-04-23T00:08:02.503Z,69.50
2018-04-23T00:10:29.195Z,70.40
2018-04-23T00:12:55.186Z,70.30
2018-04-23T00:15:21.899Z,71.20
2018-04-23T00:17:47.855Z,71.20
2018-04-23T00:20:14.341Z,71.40
2018-04-23T00:22:40.383Z,72.00
2018-04-23T00:25:06.334Z,72.30
2018-04-23T00:27:32.318Z,72.00
2018-04-23T00:29:58.272Z,71.60
2018-04-23T00:32:25.017Z,70.60
2018-04-23T00:34:50.975Z,70.50
2018-04-23T00:37:16.930Z,70.50
2018-04-23T00:39:42.907Z,70.50
2018-04-23T00:42:08.951Z,70.50
2018-04-23T00:44:35.652Z,70.60
2018-04-23T00:47:01.622Z,70.50
2018-04-23T00:49:28.267Z,70.30
2018-04-23T00:51:54.272Z,70.60
2018-04-23T00:54:20.228Z,70.90
2018-04-23T00:56:46.249Z,70.20
2018-04-23T00:59:12.222Z,69.80
2018-04-23T01:01:38.162Z,70.00
2018-04-23T01:04:04.159Z,69.70
2018-04-23T01:06:30.113Z,70.10
2018-04-23T01:08:56.063Z,70.10
2018-04-23T01:11:23.010Z,70.20
2018-04-23T01:13:48.958Z,70.20
2018-04-23T01:16:14.955Z,67.90
2018-04-23T01:18:40.966Z,67.40
2018-04-23T01:21:06.923Z,67.20
2018-04-23T01:23:32.877Z,66.80
2018-04-23T01:25:58.858Z,66.60
2018-04-23T01:28:25.542Z,66.90
2018-04-23T01:30:51.498Z,66.80
2018-04-23T01:33:17.472Z,67.50
2018-04-23T01:35:44.175Z,69.80
2018-04-23T01:38:10.164Z,69.70
2018-04-23T01:40:37.590Z,70.00
2018-04-23T01:43:03.633Z,70.00
2018-04-23T01:45:29.587Z,70.70
2018-04-23T01:47:55.570Z,70.70
2018-04-23T01:50:21.517Z,70.50
2018-04-23T01:52:47.481Z,71.60
2018-04-23T01:55:13.493Z,70.80
2018-04-23T01:57:39.465Z,70.90
2018-04-23T02:00:06.171Z,71.40
2018-04-23T02:02:32.174Z,71.50
2018-04-23T02:04:58.125Z,70.60
2018-04-23T02:07:24.086Z,69.60
2018-04-23T02:09:50.066Z,69.00
2018-04-23T02:12:16.878Z,68.90
2018-04-23T02:14:42.867Z,68.80
2018-04-23T02:17:08.840Z,69.10
2018-04-23T02:19:34.793Z,69.30
2018-04-23T02:22:00.743Z,69.30
2018-04-23T02:24:26.733Z,69.70
2018-04-23T02:26:52.690Z,70.10
2018-04-23T02:29:18.641Z,71.00
2018-04-23T02:31:44.651Z,70.80
2018-04-23T02:34:10.619Z,71.00
2018-04-23T02:36:36.578Z,70.50
2018-04-23T02:39:03.314Z,72.20
2018-04-23T02:41:29.266Z,72.20
2018-04-23T02:43:56.022Z,73.30
2018-04-23T02:46:22.754Z,73.70
2018-04-23T02:48:48.711Z,73.60
2018-04-23T02:51:15.433Z,74.10
2018-04-23T02:53:41.501Z,74.00
2018-04-23T02:56:07.514Z,74.40
2018-04-23T02:58:33.462Z,74.10
2018-04-23T03:01:00.201Z,76.00
2018-04-23T03:03:26.151Z,75.80
2018-04-23T03:05:52.851Z,75.80
2018-04-23T03:08:18.849Z,75.60
2018-04-23T03:10:45.617Z,75.30
2018-04-23T03:13:11.615Z,75.30
2018-04-23T03:15:37.616Z,75.60
2018-04-23T03:18:03.561Z,76.00
2018-04-23T03:20:29.506Z,75.80
2018-04-23T03:22:55.466Z,75.90
2018-04-23T03:25:22.164Z,76.50
2018-04-23T03:27:48.119Z,76.50
2018-04-23T03:30:14.133Z,76.10
2018-04-23T03:32:40.101Z,76.10
2018-04-23T03:35:06.051Z,76.00
2018-04-23T03:37:32.881Z,77.70
2018-04-23T03:39:58.849Z,77.10
2018-04-23T03:42:25.550Z,77.80
2018-04-23T03:44:51.665Z,77.60
2018-04-23T03:47:17.620Z,77.90
2018-04-23T03:49:43.579Z,77.70
2018-04-23T03:52:09.546Z,78.00
2018-04-23T03:54:36.246Z,78.20
2018-04-23T03:57:02.197Z,78.20
2018-04-23T03:59:28.167Z,77.90
2018-04-23T04:01:54.854Z,78.30
2018-04-23T04:04:20.818Z,78.20
2018-04-23T04:06:46.979Z,78.30
2018-04-23T04:09:12.973Z,78.40
2018-04-23T04:11:38.926Z,79.00
2018-04-23T04:14:17.461Z,79.00
2018-04-23T04:16:53.667Z,79.30
2018-04-23T04:19:19.651Z,79.60
2018-04-23T04:21:45.611Z,79.30
2018-04-23T04:24:11.584Z,79.40
2018-04-23T04:26:38.317Z,79.80
2018-04-23T04:29:05.193Z,79.80
2018-04-23T04:31:31.878Z,79.60
2018-04-23T04:33:57.837Z,79.60
2018-04-23T04:36:23.791Z,79.30
2018-04-23T04:38:50.478Z,78.70
2018-04-23T04:41:16.563Z,78.60
2018-04-23T04:43:42.542Z,78.70
2018-04-23T04:46:09.372Z,79.10
2018-04-23T04:48:35.433Z,79.00
2018-04-23T04:51:02.200Z,79.20
2018-04-23T04:53:28.210Z,79.10
2018-04-23T04:55:55.091Z,78.10
2018-04-23T04:58:21.247Z,78.10
2018-04-23T05:00:47.331Z,77.40
2018-04-23T05:03:13.571Z,77.50
2018-04-23T05:05:41.230Z,78.20
2018-04-23T05:08:07.254Z,78.20
2018-04-23T05:10:33.327Z,78.10
2018-04-23T05:12:59.546Z,78.60
2018-04-23T05:15:25.490Z,78.70
2018-04-23T05:17:51.524Z,78.30
2018-04-23T05:20:17.486Z,77.40
2018-04-23T05:22:44.254Z,76.50
2018-04-23T05:25:10.243Z,76.40
2018-04-23T05:27:36.197Z,75.10
2018-04-23T05:30:02.245Z,74.70
2018-04-23T05:32:28.163Z,74.50
2018-04-23T05:34:54.105Z,73.40
2018-04-23T05:37:20.071Z,73.60
2018-04-23T05:39:46.114Z,74.10
2018-04-23T05:42:12.104Z,74.80
2018-04-23T05:44:38.273Z,74.00
2018-04-23T05:47:04.238Z,74.20
2018-04-23T05:49:30.181Z,74.40
2018-04-23T05:51:56.138Z,74.30
2018-04-23T05:54:22.112Z,74.60
2018-04-23T05:56:48.801Z,73.90
2018-04-23T05:59:14.778Z,73.80
2018-04-23T06:01:40.783Z,74.30
2018-04-23T06:04:06.739Z,72.70
2018-04-23T06:06:32.685Z,71.50
2018-04-23T06:08:58.638Z,71.40
2018-04-23T06:11:25.347Z,72.20
2018-04-23T06:13:51.306Z,72.20
2018-04-23T06:16:17.337Z,72.30
2018-04-23T06:18:43.494Z,71.80
2018-04-23T06:21:10.851Z,72.00
2018-04-23T06:23:36.969Z,71.90
2018-04-23T06:26:02.931Z,71.20
2018-04-23T06:28:29.622Z,70.40
2018-04-23T06:30:55.915Z,70.40
2018-04-23T06:33:21.883Z,70.20
2018-04-23T06:35:47.845Z,70.40
2018-04-23T06:38:13.855Z,70.20
2018-04-23T06:40:39.819Z,70.20
2018-04-23T06:43:05.778Z,70.40
2018-04-23T06:45:32.105Z,69.90
2018-04-23T06:47:58.061Z,70.20
2018-04-23T06:50:24.006Z,69.90
2018-04-23T06:52:51.049Z,70.50
2018-04-23T06:55:17.006Z,69.90
2018-04-23T06:57:43.054Z,69.50
2018-04-23T07:00:09.766Z,69.40
2018-04-23T07:02:35.713Z,69.40
2018-04-23T07:05:01.715Z,69.30
2018-04-23T07:07:28.667Z,68.90
2018-04-23T07:09:54.609Z,68.90
2018-04-23T07:12:20.570Z,69.90
2018-04-23T07:14:46.755Z,70.10
2018-04-23T07:17:12.799Z,69.90
2018-04-23T07:19:38.766Z,70.60
2018-04-23T07:22:04.738Z,70.30
2018-04-23T07:24:30.687Z,70.80
2018-04-23T07:26:57.370Z,71.60
2018-04-23T07:29:24.068Z,71.50
2018-04-23T07:31:50.243Z,72.00
2018-04-23T07:34:16.238Z,71.50
2018-04-23T07:36:42.278Z,71.90
2018-04-23T07:39:08.234Z,71.80
2018-04-23T07:41:34.928Z,71.20
2018-04-23T07:44:00.911Z,71.10
2018-04-23T07:46:26.882Z,72.40
2018-04-23T07:48:52.834Z,71.10
2018-04-23T07:51:18.813Z,70.80
2018-04-23T07:53:46.298Z,66.70
2018-04-23T07:56:13.031Z,59.50
2018-04-23T07:58:39.036Z,59.30
2018-04-23T08:01:05.004Z,56.10
2018-04-23T08:03:30.967Z,55.90
2018-04-23T08:05:56.973Z,55.70
2018-04-23T08:08:22.939Z,55.00
2018-04-23T08:10:48.911Z,52.60
2018-04-23T08:13:15.019Z,50.30
2018-04-23T08:15:41.007Z,49.50
2018-04-23T08:18:06.967Z,45.20
2018-04-23T08:20:33.716Z,37.40
2018-04-23T08:23:00.429Z,35.60
2018-04-23T08:25:26.380Z,35.30
2018-04-23T08:27:52.366Z,34.90
2018-04-23T08:30:18.363Z,35.40
2018-04-23T08:32:44.366Z,35.70
2018-04-23T08:35:10.372Z,35.30
2018-04-23T08:37:36.375Z,34.50
2018-04-23T08:40:02.290Z,33.60
2018-04-23T08:42:28.429Z,32.40
2018-04-23T08:44:54.378Z,31.70
2018-04-23T08:47:20.662Z,30.80
2018-04-23T08:49:47.266Z,30.30
2018-04-23T08:52:13.238Z,30.20
2018-04-23T08:54:39.205Z,33.40
2018-04-23T08:57:05.216Z,32.60
2018-04-23T08:59:31.187Z,31.80
2018-04-23T09:01:57.138Z,31.70
2018-04-23T09:04:23.291Z,31.90
2018-04-23T09:06:49.250Z,31.20
2018-04-23T09:09:15.986Z,32.80
2018-04-23T09:11:43.148Z,33.90
2018-04-23T09:14:09.841Z,35.50
2018-04-23T09:16:35.798Z,34.90
2018-04-23T09:19:01.794Z,35.20
2018-04-23T09:21:27.746Z,36.20
2018-04-23T09:23:53.702Z,37.30
2018-04-23T09:26:19.695Z,38.20
2018-04-23T09:28:45.886Z,39.10
2018-04-23T09:31:11.845Z,39.80
2018-04-23T09:33:37.836Z,41.00
2018-04-23T09:36:03.784Z,41.30
2018-04-23T09:38:29.742Z,41.20
2018-04-23T09:40:55.798Z,41.70
2018-04-23T09:43:22.505Z,43.00
2018-04-23T09:45:48.478Z,43.00
2018-04-23T09:48:14.507Z,43.10
2018-04-23T09:50:41.266Z,42.30
2018-04-23T09:53:07.990Z,42.00
2018-04-23T09:55:33.959Z,42.00
2018-04-23T09:58:00.657Z,43.80
2018-04-23T10:00:30.458Z,43.70
2018-04-23T10:02:56.471Z,43.70
2018-04-23T10:05:23.170Z,44.50
2018-04-23T10:07:49.130Z,44.30
2018-04-23T10:10:15.126Z,43.40
2018-04-23T10:12:41.134Z,41.40
2018-04-23T10:15:07.825Z,41.20
2018-04-23T10:17:33.806Z,41.20
2018-04-23T10:19:59.764Z,41.50
2018-04-23T10:22:26.463Z,42.20
2018-04-23T10:24:52.455Z,42.20
2018-04-23T10:27:19.150Z,41.90
2018-04-23T10:29:45.125Z,41.90
2018-04-23T10:32:11.130Z,41.60
2018-04-23T10:34:37.082Z,41.80
2018-04-23T10:37:03.037Z,43.40
2018-04-23T10:39:29.734Z,43.30
2018-04-23T10:41:55.694Z,43.30
2018-04-23T10:44:21.646Z,43.30
2018-04-23T10:46:47.674Z,42.60
2018-04-23T10:49:14.384Z,40.80
2018-04-23T10:51:40.347Z,40.80
2018-04-23T10:54:06.330Z,40.00
2018-04-23T10:56:33.042Z,38.30
2018-04-23T10:58:58.999Z,38.20
2018-04-23T11:01:25.106Z,39.40
2018-04-23T11:03:51.058Z,40.50
2018-04-23T11:06:17.778Z,40.50
2018-04-23T11:08:43.807Z,40.50
2018-04-23T11:11:09.754Z,40.60
2018-04-23T11:13:35.706Z,40.30
2018-04-23T11:16:01.701Z,40.60
2018-04-23T11:18:27.654Z,40.50
2018-04-23T11:20:53.613Z,40.60
2018-04-23T11:23:19.711Z,40.70
2018-04-23T11:25:45.699Z,39.60
2018-04-23T11:28:11.753Z,39.10
2018-04-23T11:30:38.502Z,38.20
2018-04-23T11:33:05.238Z,37.90
2018-04-23T11:35:31.197Z,37.80
2018-04-23T11:37:57.946Z,37.90
2018-04-23T11:40:24.646Z,37.70
2018-04-23T11:42:50.601Z,37.60
2018-04-23T11:45:16.684Z,37.80
2018-04-23T11:47:43.387Z,37.60
2018-04-23T11:50:09.342Z,37.60
2018-04-23T11:52:35.341Z,37.60
2018-04-23T11:55:01.291Z,37.20
2018-04-23T11:57:27.241Z,36.90
2018-04-23T11:59:53.958Z,37.50
2018-04-23T12:02:19.933Z,37.40
2018-04-23T12:04:47.412Z,36.90
2018-04-23T12:07:13.432Z,36.90
2018-04-23T12:09:39.390Z,36.80
2018-04-23T12:12:06.399Z,37.80
2018-04-23T12:14:32.395Z,37.70
2018-04-23T12:16:59.091Z,37.30
2018-04-23T12:19:25.043Z,37.30
2018-04-23T12:21:51.387Z,36.70
2018-04-23T12:24:17.382Z,36.60
2018-04-23T12:26:43.357Z,37.90
2018-04-23T12:29:09.350Z,37.20
2018-04-23T12:31:35.302Z,37.70
2018-04-23T12:34:01.287Z,38.10
2018-04-23T12:36:27.274Z,37.50
2018-04-23T12:38:53.217Z,38.60
2018-04-23T12:41:19.174Z,38.20
2018-04-23T12:43:45.208Z,36.50
2018-04-23T12:46:11.274Z,37.40
2018-04-23T12:48:37.171Z,37.60
2018-04-23T12:51:03.335Z,36.90
2018-04-23T12:53:29.274Z,38.20
2018-04-23T12:55:55.246Z,38.00
2018-04-23T12:58:21.431Z,37.00
2018-04-23T13:00:47.399Z,37.50
2018-04-23T13:03:14.115Z,37.50
2018-04-23T13:05:40.826Z,37.30
2018-04-23T13:08:06.786Z,36.20
2018-04-23T13:10:32.754Z,36.30
2018-04-23T13:12:59.055Z,36.90
2018-04-23T13:15:25.007Z,36.70
2018-04-23T13:17:50.972Z,36.30
2018-04-23T13:20:17.755Z,36.40
2018-04-23T13:22:43.750Z,36.40
2018-04-23T13:25:09.706Z,35.80
2018-04-23T13:27:36.459Z,35.60
2018-04-23T13:30:03.202Z,36.30
2018-04-23T13:32:29.154Z,36.30
2018-04-23T13:34:56.011Z,36.90
2018-04-23T13:37:22.709Z,37.20
2018-04-23T13:39:48.685Z,37.70
2018-04-23T13:42:14.692Z,37.40
2018-04-23T13:44:40.668Z,37.70
2018-04-23T13:47:07.367Z,35.20
2018-04-23T13:49:33.334Z,35.20
2018-04-23T13:52:00.042Z,36.20
2018-04-23T13:54:26.005Z,36.20
2018-04-23T13:56:52.011Z,35.90
2018-04-23T13:59:17.962Z,35.90
2018-04-23T14:01:43.949Z,37.00
2018-04-23T14:04:09.924Z,36.70
2018-04-23T14:06:35.870Z,36.50
2018-04-23T14:09:01.822Z,36.70
2018-04-23T14:11:27.789Z,37.00
2018-04-23T14:13:54.482Z,36.20
2018-04-23T14:16:20.436Z,36.10
2018-04-23T14:18:46.486Z,36.00
2018-04-23T14:21:12.461Z,35.70
2018-04-23T14:23:38.430Z,36.50
2018-04-23T14:26:04.409Z,35.90
2018-04-23T14:28:31.103Z,35.30
2018-04-23T14:30:57.058Z,35.30
2018-04-23T14:33:23.056Z,36.10
2018-04-23T14:35:49.018Z,36.20
2018-04-23T14:38:14.986Z,36.20
2018-04-23T14:40:41.022Z,36.00
2018-04-23T14:43:06.981Z,36.10
2018-04-23T14:45:33.679Z,36.50
2018-04-23T14:47:59.682Z,36.50
2018-04-23T14:50:25.707Z,37.90
2018-04-23T14:52:52.411Z,38.40
2018-04-23T14:55:18.585Z,38.40
2018-04-23T14:57:45.551Z,38.90
2018-04-23T15:00:11.780Z,38.60
2018-04-23T15:02:37.890Z,38.30
2018-04-23T15:05:03.871Z,38.80
2018-04-23T15:07:30.566Z,43.50
2018-04-23T15:09:56.570Z,43.70
2018-04-23T15:12:22.535Z,42.20
2018-04-23T15:14:48.485Z,44.20
2018-04-23T15:17:14.536Z,47.80
2018-04-23T15:19:40.509Z,45.80
2018-04-23T15:22:06.506Z,42.60
2018-04-23T15:24:32.537Z,42.90
2018-04-23T15:26:58.526Z,42.50
2018-04-23T15:29:24.487Z,43.00
2018-04-23T15:31:50.483Z,45.90
2018-04-23T15:34:16.645Z,43.50
2018-04-23T15:36:42.652Z,41.90
2018-04-23T15:39:09.366Z,43.50
2018-04-23T15:41:35.351Z,43.60
2018-04-23T15:44:01.319Z,43.30
2018-04-23T15:46:27.290Z,42.30
2018-04-23T15:48:53.243Z,43.10
2018-04-23T15:51:19.935Z,41.70
2018-04-23T15:53:45.936Z,41.80
2018-04-23T15:56:12.002Z,43.10
2018-04-23T15:58:37.950Z,42.00
2018-04-23T16:01:03.965Z,42.80
2018-04-23T16:03:29.935Z,43.40
2018-04-23T16:05:55.887Z,42.00
2018-04-23T16:08:23.379Z,43.00
2018-04-23T16:10:50.074Z,44.30
2018-04-23T16:13:16.057Z,44.30
2018-04-23T16:15:42.062Z,45.10
2018-04-23T16:18:08.016Z,44.10
2018-04-23T16:20:33.965Z,43.10
2018-04-23T16:23:00.799Z,45.20
2018-04-23T16:25:26.758Z,45.10
2018-04-23T16:27:53.454Z,44.60
2018-04-23T16:30:19.534Z,44.60
2018-04-23T16:32:46.485Z,42.50
2018-04-23T16:35:12.457Z,42.50
2018-04-23T16:37:38.443Z,43.10
2018-04-23T16:40:04.406Z,43.10
2018-04-23T16:42:31.102Z,42.40
2018-04-23T16:44:57.112Z,42.40
2018-04-23T16:47:23.025Z,43.30
2018-04-23T16:49:49.738Z,42.50
2018-04-23T16:52:15.800Z,41.80
2018-04-23T16:54:41.880Z,42.50
2018-04-23T16:57:07.790Z,41.10
2018-04-23T16:59:34.574Z,42.40
2018-04-23T17:02:00.524Z,42.30
2018-04-23T17:04:26.488Z,39.40
2018-04-23T17:06:52.721Z,40.60
2018-04-23T17:09:18.673Z,40.60
2018-04-23T17:11:44.724Z,39.90
2018-04-23T17:14:10.762Z,41.80
2018-04-23T17:16:37.475Z,40.40
2018-04-23T17:19:03.434Z,40.20
2018-04-23T17:21:29.456Z,41.00
2018-04-23T17:23:56.106Z,41.60
2018-04-23T17:26:22.053Z,41.60
2018-04-23T17:28:48.269Z,41.60
2018-04-23T17:31:14.235Z,40.60
2018-04-23T17:33:40.185Z,40.70
2018-04-23T17:36:06.198Z,39.70
2018-04-23T17:38:32.149Z,40.50
2018-04-23T17:41:05.173Z,41.70
2018-04-23T17:43:31.162Z,42.30
2018-04-23T17:45:57.123Z,42.00
2018-04-23T17:48:23.831Z,42.00
2018-04-23T17:50:49.943Z,41.30
2018-04-23T17:53:15.911Z,41.40
2018-04-23T17:55:41.915Z,41.40
2018-04-23T17:58:07.911Z,42.50
2018-04-23T18:00:33.876Z,42.50
2018-04-23T18:02:59.844Z,43.40
2018-04-23T18:05:25.839Z,43.00
2018-04-23T18:07:52.535Z,44.00
2018-04-23T18:10:18.512Z,44.00
2018-04-23T18:12:44.509Z,44.30
2018-04-23T18:15:10.468Z,45.00
2018-04-23T18:17:36.469Z,45.00
2018-04-23T18:20:02.414Z,45.20
2018-04-23T18:22:28.377Z,45.40
2018-04-23T18:24:54.347Z,46.60
2018-04-23T18:27:28.183Z,47.80
2018-04-23T18:29:54.141Z,47.80
2018-04-23T18:32:20.103Z,49.20
2018-04-23T18:34:46.128Z,49.50
2018-04-23T18:37:12.100Z,49.10
2018-04-23T18:39:38.797Z,49.70
2018-04-23T18:42:04.775Z,49.60
2018-04-23T18:44:30.721Z,48.90
2018-04-23T18:46:57.418Z,50.30
2018-04-23T18:49:23.390Z,50.30
2018-04-23T18:51:49.354Z,51.00
2018-04-23T18:54:16.074Z,51.10
2018-04-23T18:56:42.085Z,51.10
2018-04-23T18:59:08.061Z,52.00
2018-04-23T19:01:34.750Z,52.60
2018-04-23T19:04:00.736Z,51.80
2018-04-23T19:06:26.710Z,52.00
2018-04-23T19:08:52.719Z,52.50
2018-04-23T19:11:18.630Z,52.70
2018-04-23T19:13:44.606Z,52.30
2018-04-23T19:16:11.338Z,52.80
2018-04-23T19:18:38.078Z,53.30
2018-04-23T19:21:05.541Z,53.40
2018-04-23T19:23:31.490Z,53.40
2018-04-23T19:25:57.458Z,53.00
2018-04-23T19:28:23.517Z,52.70
2018-04-23T19:30:49.619Z,53.10
2018-04-23T19:33:16.394Z,53.40
2018-04-23T19:35:42.406Z,53.30
2018-04-23T19:38:09.109Z,54.70
2018-04-23T19:40:35.065Z,54.60
2018-04-23T19:43:01.019Z,54.60
2018-04-23T19:45:26.974Z,55.20
2018-04-23T19:47:53.815Z,55.20
2018-04-23T19:50:19.778Z,55.20
2018-04-23T19:52:45.752Z,55.80
2018-04-23T19:55:11.745Z,55.00
2018-04-23T19:57:37.704Z,55.20
2018-04-23T20:00:03.659Z,54.60
2018-04-23T20:02:29.656Z,55.00
2018-04-23T20:04:55.632Z,55.40
2018-04-23T20:07:21.661Z,55.30
2018-04-23T20:09:47.713Z,55.80
2018-04-23T20:12:14.378Z,55.80
2018-04-23T20:14:40.503Z,56.30
2018-04-23T20:17:06.518Z,56.40
2018-04-23T20:19:32.476Z,56.30
2018-04-23T20:21:58.459Z,56.30
2018-04-23T20:24:24.650Z,56.00
2018-04-23T20:26:50.613Z,56.00
2018-04-23T20:29:16.570Z,56.40
2018-04-23T20:31:42.593Z,56.40
2018-04-23T20:34:08.549Z,56.60
2018-04-23T20:36:34.493Z,56.80
2018-04-23T20:39:00.491Z,56.70
2018-04-23T20:41:27.199Z,56.80
2018-04-23T20:43:53.314Z,56.80
2018-04-23T20:46:19.295Z,56.60
2018-04-23T20:48:45.273Z,56.60
2018-04-23T20:51:11.255Z,56.70
2018-04-23T20:53:37.483Z,57.30
2018-04-23T20:56:03.442Z,58.00
2018-04-23T20:58:29.402Z,57.10
2018-04-23T21:00:56.119Z,57.30
2018-04-23T21:03:22.077Z,57.30
2018-04-23T21:05:48.030Z,57.40
2018-04-23T21:08:14.803Z,58.10
2018-04-23T21:10:40.764Z,58.10
2018-04-23T21:13:06.719Z,57.60
2018-04-23T21:15:32.707Z,57.60
2018-04-23T21:17:58.653Z,57.50
2018-04-23T21:20:24.606Z,57.40
2018-04-23T21:22:50.597Z,58.40
2018-04-23T21:25:16.894Z,58.70
2018-04-23T21:27:42.956Z,59.10
2018-04-23T21:30:09.667Z,60.50
2018-04-23T21:32:35.624Z,60.30
2018-04-23T21:35:01.592Z,60.50
2018-04-23T21:37:28.303Z,60.80
2018-04-23T21:39:54.255Z,60.90
2018-04-23T21:42:20.197Z,60.90
2018-04-23T21:44:46.205Z,61.00
2018-04-23T21:47:12.176Z,60.70
2018-04-23T21:49:38.888Z,60.60
2018-04-23T21:52:04.882Z,60.60
2018-04-23T21:54:30.834Z,60.40
2018-04-23T21:56:56.785Z,61.10
2018-04-23T21:59:22.759Z,61.70
2018-04-23T22:01:48.722Z,62.20
2018-04-23T22:04:15.436Z,62.70
2018-04-23T22:06:41.455Z,62.70
2018-04-23T22:09:07.423Z,63.10
2018-04-23T22:11:34.119Z,63.20
2018-04-23T22:14:00.241Z,63.00
2018-04-23T22:16:26.191Z,63.10
2018-04-23T22:18:52.149Z,63.30
2018-04-23T22:21:18.386Z,63.60
2018-04-23T22:23:44.392Z,63.90
2018-04-23T22:26:10.342Z,64.30
2018-04-23T22:28:36.633Z,65.00
2018-04-23T22:31:02.579Z,65.40
2018-04-23T22:33:29.302Z,66.40
2018-04-23T22:35:55.298Z,66.30
2018-04-23T22:38:21.257Z,66.20
2018-04-23T22:40:47.213Z,66.20
2018-04-23T22:43:13.251Z,66.60
2018-04-23T22:45:39.206Z,67.30
2018-04-23T22:48:05.897Z,68.00
2018-04-23T22:50:31.928Z,68.00
2018-04-23T22:52:57.838Z,68.50
2018-04-23T22:55:24.537Z,69.10
2018-04-23T22:57:50.509Z,69.70
2018-04-23T23:00:16.506Z,68.90
2018-04-23T23:02:42.489Z,68.80
2018-04-23T23:05:09.198Z,69.60
2018-04-23T23:07:35.159Z,69.50
2018-04-23T23:10:01.115Z,69.80
2018-04-23T23:12:27.813Z,70.40
2018-04-23T23:14:53.765Z,70.40
2018-04-23T23:17:19.717Z,70.40
2018-04-23T23:19:45.730Z,70.50
2018-04-23T23:22:12.670Z,70.90
2018-04-23T23:24:38.610Z,71.00
2018-04-23T23:27:04.585Z,70.80
2018-04-23T23:29:31.278Z,71.60
2018-04-23T23:31:57.221Z,71.00
2018-04-23T23:34:23.224Z,70.60
2018-04-23T23:36:49.923Z,71.20
2018-04-23T23:39:15.884Z,71.20
2018-04-23T23:41:42.172Z,71.50
2018-04-23T23:44:08.838Z,71.90
2018-04-23T23:46:34.803Z,71.80
2018-04-23T23:49:00.938Z,71.80
2018-04-23T23:51:26.917Z,72.10
2018-04-23T23:53:52.937Z,72.50
2018-04-23T23:56:18.926Z,72.50
2018-04-23T23:58:44.904Z,72.80
